Time;durP1;ratioP1;P1;durP2;ratioP2;P2;SDS_P1;SDS_P2;PMS_P1;PMS_P2;Temp;Humidity;BMP_temperature;BMP_pressure;BME280_temperature;BME280_humidity;BME280_pressure;Samples;Min_cycle;Max_cycle;Signal;HPM_P1;HPM_P2
2022/08/17 00:01:15;;;;;;;32.63;29.20;;;20.30;96.00;;;;;;5073203;28;20082;-53
2022/08/17 00:03:43;;;;;;;40.03;34.25;;;20.20;96.10;;;;;;5071851;28;20049;-52
2022/08/17 00:06:27;;;;;;;36.53;31.98;;;20.30;96.60;;;;;;5072630;28;20501;-49
2022/08/17 00:08:56;;;;;;;41.33;35.65;;;20.30;97.10;;;;;;5072374;28;20449;-49
2022/08/17 00:11:32;;;;;;;38.95;34.90;;;20.30;97.10;;;;;;5072486;28;20033;-49
2022/08/17 00:14:02;;;;;;;31.30;28.10;;;20.30;97.30;;;;;;5071595;28;20052;-49
2022/08/17 00:16:31;;;;;;;31.23;28.08;;;20.30;97.10;;;;;;5070699;28;20367;-48
2022/08/17 00:18:58;;;;;;;36.75;32.45;;;20.30;96.80;;;;;;5072513;28;20075;-48
2022/08/17 00:21:24;;;;;;;34.63;30.83;;;20.30;96.80;;;;;;5072505;28;20048;-52
2022/08/17 00:23:50;;;;;;;;;;;20.30;96.70;;;;;;5070947;28;20048;-51
2022/08/17 00:26:18;;;;;;;29.77;26.67;;;20.30;97.20;;;;;;5071636;28;19921;-49
2022/08/17 00:28:44;;;;;;;29.38;26.45;;;20.30;96.90;;;;;;5071495;28;20045;-54
2022/08/17 00:31:10;;;;;;;;;;;20.30;97.00;;;;;;5072678;28;20406;-47
2022/08/17 00:33:36;;;;;;;31.55;28.23;;;20.20;96.90;;;;;;5072289;28;20385;-49
2022/08/17 00:36:04;;;;;;;29.40;26.42;;;20.20;96.60;;;;;;5071991;28;20040;-49
2022/08/17 00:38:31;;;;;;;31.23;27.83;;;20.20;96.40;;;;;;5072056;28;20439;-49
2022/08/17 00:41:07;;;;;;;35.17;31.40;;;20.20;96.60;;;;;;5071213;28;20028;-53
2022/08/17 00:43:37;;;;;;;40.55;36.40;;;20.20;96.70;;;;;;5071543;28;20511;-51
2022/08/17 00:46:07;;;;;;;38.53;34.30;;;20.20;97.20;;;;;;5071632;28;20043;-51
2022/08/17 00:48:34;;;;;;;39.75;34.72;;;20.20;97.10;;;;;;5072115;28;20505;-53
2022/08/17 00:51:02;;;;;;;36.58;32.75;;;20.10;97.30;;;;;;5071702;28;20024;-49
2022/08/17 00:53:31;;;;;;;37.78;33.72;;;20.10;97.30;;;;;;5072082;28;20091;-49
2022/08/17 00:56:00;;;;;;;37.50;33.50;;;20.10;97.80;;;;;;5071852;28;20040;-49
2022/08/17 00:58:26;;;;;;;38.33;34.08;;;20.10;97.80;;;;;;5071822;28;20044;-49
2022/08/17 01:00:52;;;;;;;;;;;20.10;97.80;;;;;;5071655;28;20040;-49
2022/08/17 01:03:24;;;;;;;44.17;35.30;;;20.10;97.90;;;;;;5070660;28;19931;-49
2022/08/17 01:05:52;;;;;;;46.80;40.13;;;20.00;97.50;;;;;;5071503;28;20032;-47
2022/08/17 01:08:22;;;;;;;45.35;40.55;;;19.90;97.80;;;;;;5070560;28;20032;-49
2022/08/17 01:10:52;;;;;;;42.38;38.00;;;19.90;98.10;;;;;;5071253;28;20429;-49
2022/08/17 01:13:19;;;;;;;38.33;34.20;;;19.80;98.30;;;;;;5070923;28;20176;-50
2022/08/17 01:15:57;;;;;;;38.50;34.72;;;19.80;98.20;;;;;;5070877;28;20086;-48
2022/08/17 01:18:25;;;;;;;34.47;30.98;;;19.80;98.20;;;;;;5070320;28;20032;-49
2022/08/17 01:20:53;;;;;;;33.88;30.55;;;19.70;98.00;;;;;;5069625;28;20104;-48
2022/08/17 01:23:23;;;;;;;35.15;30.77;;;19.60;98.00;;;;;;5070110;28;20378;-51
2022/08/17 01:25:52;;;;;;;34.40;28.48;;;19.60;98.00;;;;;;5070170;28;20071;-47
2022/08/17 01:28:20;;;;;;;35.60;31.58;;;19.70;98.10;;;;;;5070025;28;20036;-49
2022/08/17 01:30:46;;;;;;;35.45;31.45;;;19.60;98.00;;;;;;5070445;28;20414;-48
2022/08/17 01:33:12;;;;;;;37.30;33.47;;;19.60;98.00;;;;;;5069590;28;20086;-48
2022/08/17 01:35:39;;;;;;;40.47;36.10;;;19.60;98.30;;;;;;5070548;28;20068;-48
2022/08/17 01:38:06;;;;;;;41.50;35.25;;;19.60;98.50;;;;;;5070396;28;20044;-49
2022/08/17 01:40:39;;;;;;;43.35;32.78;;;19.60;98.40;;;;;;5070605;28;20052;-49
2022/08/17 01:43:09;;;;;;;51.28;35.20;;;19.60;98.30;;;;;;5069777;28;20048;-49
2022/08/17 01:45:42;;;;;;;39.40;35.15;;;19.60;98.30;;;;;;5070705;28;20041;-48
2022/08/17 01:48:10;;;;;;;43.28;35.35;;;19.60;98.50;;;;;;5070062;28;20060;-47
2022/08/17 01:50:36;;;;;;;42.10;37.60;;;19.60;98.30;;;;;;5056610;28;20240;-47
2022/08/17 01:53:05;;;;;;;48.25;39.65;;;19.60;98.50;;;;;;5069961;28;20036;-48
2022/08/17 01:55:39;;;;;;;46.10;39.55;;;19.60;98.80;;;;;;5070169;28;20056;-48
2022/08/17 01:58:08;;;;;;;42.35;37.92;;;19.60;99.00;;;;;;5067002;28;20418;-48
2022/08/17 02:00:35;;;;;;;46.20;40.63;;;19.70;99.00;;;;;;5070240;28;20501;-47
2022/08/17 02:03:01;;;;;;;45.70;40.85;;;19.70;99.10;;;;;;5070300;28;20063;-49
2022/08/17 02:05:27;;;;;;;43.65;38.38;;;19.80;99.30;;;;;;5069888;28;20086;-49
2022/08/17 02:07:52;;;;;;;;;;;19.80;99.30;;;;;;5070583;28;20154;-48
2022/08/17 02:10:18;;;;;;;42.50;37.20;;;19.80;99.60;;;;;;5070389;28;19916;-46
2022/08/17 02:12:43;;;;;;;;;;;19.80;99.30;;;;;;5070111;28;20122;-49
2022/08/17 02:15:11;;;;;;;45.78;40.03;;;19.90;99.80;;;;;;5069528;28;19974;-50
2022/08/17 02:17:39;;;;;;;48.90;41.08;;;19.90;99.40;;;;;;5070456;28;20052;-46
2022/08/17 02:20:06;;;;;;;43.33;38.90;;;19.80;99.40;;;;;;5070358;28;20449;-48
2022/08/17 02:22:32;;;;;;;44.95;40.03;;;19.80;99.70;;;;;;5069859;28;20402;-48
2022/08/17 02:24:59;;;;;;;42.83;38.17;;;19.80;99.80;;;;;;5069633;28;20040;-47
2022/08/17 02:27:25;;;;;;;42.35;37.83;;;19.70;99.80;;;;;;5068951;28;20486;-47
2022/08/17 02:29:50;;;;;;;43.95;38.70;;;19.80;99.90;;;;;;5069053;28;20028;-49
2022/08/17 02:32:17;;;;;;;;;;;19.80;99.90;;;;;;5070746;28;20055;-48
2022/08/17 02:34:42;;;;;;;49.53;40.15;;;19.80;99.90;;;;;;5069586;28;19916;-48
2022/08/17 02:37:08;;;;;;;48.53;39.42;;;19.90;99.90;;;;;;5068919;28;20059;-48
2022/08/17 02:39:33;;;;;;;;;;;19.90;99.90;;;;;;5070335;28;20079;-49
2022/08/17 02:42:01;;;;;;;41.83;37.35;;;19.90;99.90;;;;;;5069672;28;19916;-49
2022/08/17 02:44:27;;;;;;;42.92;36.63;;;19.90;99.90;;;;;;5069432;28;20036;-48
2022/08/17 02:46:52;;;;;;;;;;;19.90;99.90;;;;;;5068955;28;20048;-48
2022/08/17 02:49:18;;;;;;;44.90;38.55;;;19.90;99.90;;;;;;5069933;28;19920;-47
2022/08/17 02:51:43;;;;;;;;;;;19.90;99.90;;;;;;5070565;28;20115;-50
2022/08/17 02:54:09;;;;;;;42.30;37.20;;;19.90;99.90;;;;;;5069533;28;19924;-47
2022/08/17 02:56:34;;;;;;;;;;;20.00;99.90;;;;;;5069621;28;20043;-51
2022/08/17 02:59:00;;;;;;;42.33;37.78;;;19.90;99.90;;;;;;5069613;28;19924;-49
2022/08/17 03:01:26;;;;;;;;;;;19.90;99.90;;;;;;5070096;28;20078;-47
2022/08/17 03:03:52;;;;;;;43.90;38.85;;;19.90;99.90;;;;;;5069397;28;19920;-48
2022/08/17 03:06:18;;;;;;;;;;;19.90;99.90;;;;;;5069345;28;20315;-48
2022/08/17 03:08:43;;;;;;;43.22;35.90;;;19.90;99.90;;;;;;5069697;28;19978;-46
2022/08/17 03:11:09;;;;;;;;;;;19.90;99.90;;;;;;5069163;28;20438;-49
2022/08/17 03:13:34;;;;;;;48.30;41.25;;;19.90;99.90;;;;;;5069428;28;19939;-50
2022/08/17 03:16:00;;;;;;;42.55;38.03;;;19.90;99.90;;;;;;5069244;28;20063;-49
2022/08/17 03:18:26;;;;;;;;;;;19.80;99.90;;;;;;5069793;28;20466;-48
2022/08/17 03:20:58;;;;;;;45.75;38.75;;;19.80;99.90;;;;;;5069542;28;20046;-48
2022/08/17 03:23:25;;;;;;;45.03;40.28;;;19.80;99.90;;;;;;5068515;28;20437;-48
2022/08/17 03:25:52;;;;;;;44.50;39.72;;;19.80;99.90;;;;;;5066236;28;20397;-49
2022/08/17 03:28:18;;;;;;;47.30;41.60;;;19.80;99.90;;;;;;5069262;28;20071;-49
2022/08/17 03:30:43;;;;;;;48.55;41.47;;;19.80;99.90;;;;;;5069048;28;20036;-48
2022/08/17 03:33:09;;;;;;;;;;;19.70;99.90;;;;;;5069431;28;20094;-48
2022/08/17 03:35:36;;;;;;;41.20;36.58;;;19.80;99.90;;;;;;5069365;28;19923;-49
2022/08/17 03:38:03;;;;;;;46.45;40.78;;;19.70;99.90;;;;;;5068407;28;20496;-49
2022/08/17 03:40:29;;;;;;;44.85;38.65;;;19.80;99.90;;;;;;5069027;28;20553;-48
2022/08/17 03:42:56;;;;;;;42.97;37.80;;;19.80;99.90;;;;;;5069092;28;20358;-48
2022/08/17 03:56:41;;;;;;;46.33;40.90;;;20.00;99.90;;;;;;5073035;28;20499;-48
2022/08/17 03:59:06;;;;;;;50.10;44.45;;;19.90;99.90;;;;;;5072213;28;20436;-49
2022/08/17 04:01:32;;;;;;;49.92;41.38;;;19.90;99.90;;;;;;5072715;28;20044;-49
2022/08/17 04:03:58;;;;;;;;;;;20.00;99.90;;;;;;5073176;28;20434;-49
2022/08/17 04:06:23;;;;;;;48.85;42.85;;;20.00;99.90;;;;;;5072537;28;19966;-48
2022/08/17 04:08:48;;;;;;;;;;;20.00;99.90;;;;;;5071527;28;20040;-49
2022/08/17 04:11:14;;;;;;;49.80;42.15;;;19.90;99.90;;;;;;5073024;28;19916;-49
2022/08/17 04:13:39;;;;;;;;;;;19.90;99.90;;;;;;5072150;28;20390;-49
2022/08/17 04:16:05;;;;;;;51.30;40.42;;;20.00;99.90;;;;;;5072883;28;20422;-48
2022/08/17 04:18:31;;;;;;;;;;;19.90;99.90;;;;;;5072322;28;20043;-49
2022/08/17 04:20:56;;;;;;;46.60;40.42;;;19.90;99.90;;;;;;5072383;28;19920;-49
2022/08/17 04:23:22;;;;;;;;;;;20.00;99.90;;;;;;5072218;28;20353;-48
2022/08/17 04:25:49;;;;;;;46.58;40.83;;;20.00;99.90;;;;;;5071818;28;19920;-49
2022/08/17 04:28:17;;;;;;;51.15;43.80;;;20.00;99.90;;;;;;5071770;28;20087;-48
2022/08/17 04:30:43;;;;;;;44.70;39.92;;;20.00;99.90;;;;;;5070877;28;20040;-49
2022/08/17 04:33:19;;;;;;;48.03;42.92;;;20.00;99.90;;;;;;5071857;28;20178;-49
2022/08/17 04:35:48;;;;;;;46.17;40.20;;;20.00;99.90;;;;;;5072603;28;20386;-47
2022/08/17 04:38:17;;;;;;;57.67;44.40;;;20.00;99.90;;;;;;5071839;28;20048;-48
2022/08/17 04:43:29;;;;;;;47.30;42.35;;;20.00;99.90;;;;;;5071800;28;20048;-48
2022/08/17 04:45:58;;;;;;;49.85;41.72;;;20.00;99.90;;;;;;5071777;28;20036;-48
2022/08/17 04:48:27;;;;;;;46.95;41.55;;;20.00;99.90;;;;;;5071855;28;20032;-48
2022/08/17 04:50:52;;;;;;;54.53;43.33;;;20.10;99.90;;;;;;5071621;28;20052;-47
2022/08/17 04:53:20;;;;;;;44.85;40.03;;;20.10;99.90;;;;;;5071251;28;20052;-47
2022/08/17 04:55:46;;;;;;;46.28;40.42;;;20.10;99.90;;;;;;5071814;28;20055;-49
2022/08/17 04:58:12;;;;;;;47.97;39.08;;;20.10;99.90;;;;;;5071473;28;20541;-48
2022/08/17 05:00:38;;;;;;;46.40;41.00;;;20.10;99.90;;;;;;5071442;28;20174;-47
2022/08/17 05:03:04;;;;;;;;;;;20.10;99.90;;;;;;5071400;28;20040;-49
2022/08/17 05:05:32;;;;;;;50.17;39.63;;;20.20;99.90;;;;;;5070740;28;19955;-48
2022/08/17 05:08:01;;;;;;;45.22;38.55;;;20.20;99.90;;;;;;5071662;28;20083;-47
2022/08/17 05:10:29;;;;;;;44.35;39.75;;;20.10;99.90;;;;;;5070833;28;20072;-48
2022/08/17 05:13:05;;;;;;;47.38;42.35;;;20.20;99.90;;;;;;5064747;28;20047;-48
2022/08/17 05:15:32;;;;;;;43.72;39.17;;;20.20;99.90;;;;;;5070327;28;20082;-49
2022/08/17 05:17:57;;;;;;;48.95;41.72;;;20.10;99.90;;;;;;5070995;28;20602;-48
2022/08/17 05:20:23;;;;;;;46.72;40.47;;;20.20;99.90;;;;;;5070655;28;20040;-46
2022/08/17 05:22:55;;;;;;;47.83;40.78;;;20.20;99.90;;;;;;5070594;28;20075;-48
2022/08/17 05:25:24;;;;;;;47.17;40.78;;;20.10;99.90;;;;;;5070575;28;20394;-49
2022/08/17 05:27:50;;;;;;;45.60;40.20;;;20.10;99.90;;;;;;5071049;28;20063;-49
2022/08/17 05:30:16;;;;;;;46.17;41.17;;;20.10;99.90;;;;;;5070561;28;20036;-49
2022/08/17 05:32:57;;;;;;;;;;;20.10;99.90;;;;;;5070649;28;20090;-51
2022/08/17 05:35:25;;;;;;;43.67;38.78;;;20.10;99.90;;;;;;5056416;28;20007;-51
2022/08/17 05:37:52;;;;;;;48.15;39.45;;;20.10;99.90;;;;;;5066605;28;20036;-54
2022/08/17 05:40:19;;;;;;;46.80;39.53;;;20.20;99.90;;;;;;5070447;28;20087;-55
2022/08/17 05:42:45;;;;;;;43.40;38.85;;;20.20;99.90;;;;;;5070155;28;20452;-50
2022/08/17 05:45:11;;;;;;;;;;;20.20;99.90;;;;;;5070020;28;20047;-53
2022/08/17 05:47:38;;;;;;;42.25;35.90;;;20.20;99.90;;;;;;5069911;28;20425;-52
2022/08/17 05:50:08;;;;;;;54.03;38.60;;;20.20;99.90;;;;;;5070948;28;20067;-53
2022/08/17 05:52:48;;;;;;;46.08;39.13;;;20.20;99.90;;;;;;5070167;28;20067;-50
2022/08/17 05:55:30;;;;;;;74.65;39.40;;;20.20;99.90;;;;;;5067678;28;20047;-54
2022/08/17 05:58:31;;;;;;;47.85;40.38;;;20.20;99.90;;;;;;5069363;28;20048;-54
2022/08/17 06:01:14;;;;;;;56.22;41.78;;;20.20;99.90;;;;;;5070530;28;20041;-52
2022/08/17 06:03:57;;;;;;;47.17;41.53;;;20.20;99.90;;;;;;5069006;28;20040;-52
2022/08/17 06:06:40;;;;;;;47.50;42.10;;;20.20;99.90;;;;;;5070809;28;20047;-53
2022/08/17 06:09:39;;;;;;;50.35;40.70;;;20.20;99.90;;;;;;5070234;28;20036;-51
2022/08/17 06:12:22;;;;;;;43.97;39.10;;;20.20;99.90;;;;;;5070567;28;20049;-53
2022/08/17 06:15:04;;;;;;;45.65;40.67;;;20.20;99.90;;;;;;5069340;28;20044;-52
2022/08/17 06:17:30;;;;;;;54.50;41.22;;;20.20;99.90;;;;;;5070242;28;20124;-50
2022/08/17 06:20:05;;;;;;;49.08;39.10;;;20.20;99.90;;;;;;5069810;28;20040;-55
2022/08/17 06:22:39;;;;;;;61.03;41.78;;;20.20;99.90;;;;;;5070032;28;20051;-50
2022/08/17 06:25:16;;;;;;;52.58;42.28;;;20.30;99.90;;;;;;5069721;28;20044;-53
2022/08/17 06:27:54;;;;;;;47.38;36.67;;;20.30;99.90;;;;;;5070120;28;20051;-55
2022/08/17 06:30:33;;;;;;;42.97;35.75;;;20.20;99.90;;;;;;5069817;28;20058;-54
2022/08/17 06:33:06;;;;;;;42.97;37.35;;;20.30;99.90;;;;;;5068425;28;20132;-51
2022/08/17 06:35:38;;;;;;;51.45;41.90;;;20.30;99.90;;;;;;5062762;28;20072;-54
2022/08/17 06:38:31;;;;;;;49.00;42.42;;;20.40;99.90;;;;;;5067482;28;20032;-54
2022/08/17 06:41:22;;;;;;;44.55;39.65;;;20.40;99.90;;;;;;5050240;28;20048;-54
2022/08/17 06:44:08;;;;;;;42.70;36.90;;;20.40;99.90;;;;;;5049398;28;20064;-50
2022/08/17 06:46:41;;;;;;;43.45;38.53;;;20.40;99.90;;;;;;5065011;28;20041;-55
2022/08/17 06:49:33;;;;;;;43.92;38.90;;;20.50;99.90;;;;;;5069316;28;20401;-53
2022/08/17 06:52:18;;;;;;;43.42;38.20;;;20.50;99.90;;;;;;5069756;28;20036;-52
2022/08/17 06:55:13;;;;;;;42.95;36.70;;;20.60;99.90;;;;;;5070007;28;20115;-54
2022/08/17 06:57:56;;;;;;;41.42;37.08;;;20.60;99.90;;;;;;5069260;28;20568;-52
2022/08/17 07:00:26;;;;;;;42.20;36.83;;;20.70;99.90;;;;;;5069766;28;20056;-50
2022/08/17 07:03:06;;;;;;;43.28;37.08;;;20.80;99.90;;;;;;5069644;28;20124;-53
2022/08/17 07:05:41;;;;;;;40.38;35.10;;;20.90;99.90;;;;;;5062994;28;20037;-52
2022/08/17 07:08:33;;;;;;;38.15;34.13;;;21.00;99.90;;;;;;5061693;28;20040;-51
2022/08/17 07:11:11;;;;;;;40.65;35.17;;;21.10;99.90;;;;;;5069043;28;20033;-54
2022/08/17 07:13:37;;;;;;;39.42;34.35;;;21.20;99.90;;;;;;5068788;28;20040;-53
2022/08/17 07:16:13;;;;;;;;;;;21.30;99.90;;;;;;5069687;28;20529;-49
2022/08/17 07:18:40;;;;;;;37.70;32.72;;;21.40;99.90;;;;;;5066593;28;19924;-53
2022/08/17 07:21:20;;;;;;;56.28;33.35;;;21.50;99.90;;;;;;5068966;28;20513;-49
2022/08/17 07:24:01;;;;;;;34.85;31.20;;;21.60;99.90;;;;;;5068910;28;20052;-53
2022/08/17 07:26:27;;;;;;;32.70;28.33;;;21.70;99.80;;;;;;5071395;28;20040;-52
2022/08/17 07:28:54;;;;;;;;;;;21.90;99.60;;;;;;5073228;28;20044;-53
2022/08/17 07:31:22;;;;;;;32.05;28.27;;;22.10;99.50;;;;;;5072947;28;19916;-50
2022/08/17 07:34:13;;;;;;;29.67;26.55;;;22.20;99.30;;;;;;5072586;28;20124;-54
2022/08/17 07:36:40;;;;;;;32.58;29.13;;;22.40;98.80;;;;;;5071876;28;20048;-50
2022/08/17 07:39:07;;;;;;;31.23;27.67;;;22.60;98.30;;;;;;5072219;28;20029;-54
2022/08/17 07:41:39;;;;;;;30.75;25.58;;;22.70;97.80;;;;;;5072860;28;20078;-50
2022/08/17 07:44:14;;;;;;;29.60;26.42;;;22.70;97.50;;;;;;5061419;28;20409;-53
2022/08/17 07:49:40;;;;;;;32.28;26.63;;;22.70;96.80;;;;;;5066897;28;20049;-49
2022/08/17 07:52:25;;;;;;;28.73;25.63;;;22.70;96.90;;;;;;5070436;28;20040;-51
2022/08/17 07:54:50;;;;;;;28.65;25.30;;;22.70;96.90;;;;;;5069263;28;20414;-48
2022/08/17 07:57:19;;;;;;;;;;;22.80;96.90;;;;;;5071816;28;20044;-49
2022/08/17 07:59:59;;;;;;;28.80;25.60;;;22.90;96.50;;;;;;5072316;28;19916;-49
2022/08/17 08:02:37;;;;;;;30.70;26.10;;;22.90;96.40;;;;;;5070423;28;20437;-50
2022/08/17 08:05:19;;;;;;;28.40;25.42;;;22.90;96.40;;;;;;5080233;28;20055;-51
2022/08/17 08:08:04;;;;;;;28.33;25.08;;;22.90;96.10;;;;;;5087823;28;20048;-54
2022/08/17 08:10:32;;;;;;;26.63;23.88;;;22.90;95.90;;;;;;5085313;28;20434;-49
2022/08/17 08:13:10;;;;;;;28.58;25.70;;;22.90;96.10;;;;;;5076331;28;20028;-48
2022/08/17 08:15:42;;;;;;;29.85;25.20;;;22.90;96.00;;;;;;5086244;28;20040;-53
2022/08/17 08:18:33;;;;;;;27.20;24.08;;;22.90;96.00;;;;;;5080833;28;20040;-51
2022/08/17 08:21:08;;;;;;;27.58;23.65;;;22.80;95.70;;;;;;5076400;28;20032;-51
2022/08/17 08:23:39;;;;;;;28.35;21.75;;;22.90;95.90;;;;;;5079247;28;20437;-50
2022/08/17 08:26:16;;;;;;;33.80;21.77;;;22.80;95.90;;;;;;5080727;28;20489;-49
2022/08/17 08:28:50;;;;;;;;;;;22.90;95.90;;;;;;5091282;28;20050;-51
2022/08/17 08:31:43;;;;;;;25.83;20.92;;;22.90;95.70;;;;;;5087558;28;19916;-49
2022/08/17 08:34:45;;;;;;;23.05;20.52;;;22.90;96.00;;;;;;5084462;28;20044;-54
2022/08/17 08:37:20;;;;;;;27.27;22.80;;;22.90;95.90;;;;;;5084251;28;20041;-49
2022/08/17 08:40:10;;;;;;;27.42;20.27;;;22.90;96.10;;;;;;5082339;28;20040;-49
2022/08/17 08:42:46;;;;;;;22.45;20.05;;;22.90;96.10;;;;;;5060669;28;20036;-49
2022/08/17 08:45:17;;;;;;;21.10;19.05;;;22.90;95.90;;;;;;5041167;28;20080;-51
2022/08/17 08:47:52;;;;;;;23.83;21.33;;;22.90;95.80;;;;;;5039894;28;20036;-54
2022/08/17 08:50:39;;;;;;;25.33;22.73;;;23.00;95.60;;;;;;5062482;28;20505;-50
2022/08/17 08:53:34;;;;;;;24.30;21.73;;;23.00;95.50;;;;;;5041635;28;20646;-49
2022/08/17 08:56:09;;;;;;;33.70;23.08;;;23.00;95.50;;;;;;5074484;28;20058;-50
2022/08/17 08:59:01;;;;;;;30.83;22.95;;;23.10;95.50;;;;;;5078934;28;20040;-49
2022/08/17 09:01:35;;;;;;;27.17;24.13;;;23.10;95.40;;;;;;5077473;28;20428;-53
2022/08/17 09:04:34;;;;;;;32.33;28.05;;;23.20;95.30;;;;;;5077759;28;20048;-53
2022/08/17 09:07:37;;;;;;;30.35;25.35;;;23.30;95.20;;;;;;5075684;28;20099;-54
2022/08/17 09:10:17;;;;;;;29.67;26.73;;;23.30;95.20;;;;;;5041546;28;20079;-50
2022/08/17 09:12:54;;;;;;;29.63;26.45;;;23.30;95.20;;;;;;5082799;28;20120;-53
2022/08/17 09:15:27;;;;;;;28.30;25.05;;;23.30;95.30;;;;;;5089207;28;20694;-51
2022/08/17 09:18:07;;;;;;;27.88;24.70;;;23.40;95.10;;;;;;5087343;28;20040;-52
2022/08/17 09:20:41;;;;;;;28.85;25.92;;;23.40;95.00;;;;;;5079649;28;20039;-55
2022/08/17 09:23:24;;;;;;;28.80;25.95;;;23.50;95.00;;;;;;5078843;28;20397;-51
2022/08/17 09:26:10;;;;;;;31.63;27.05;;;23.60;95.00;;;;;;5082030;28;20036;-51
2022/08/17 09:28:41;;;;;;;27.60;24.65;;;23.70;95.10;;;;;;5084156;28;20044;-51
2022/08/17 09:31:10;;;;;;;31.38;24.40;;;23.80;95.20;;;;;;5068760;28;20468;-51
2022/08/17 09:33:42;;;;;;;50.85;24.42;;;23.90;95.20;;;;;;5078151;28;20044;-52
2022/08/17 09:36:14;;;;;;;28.80;25.48;;;24.10;95.00;;;;;;5071901;28;20099;-51
2022/08/17 09:39:02;;;;;;;30.70;27.50;;;24.30;94.70;;;;;;5075611;28;20058;-52
2022/08/17 09:41:37;;;;;;;28.08;25.25;;;24.30;94.40;;;;;;5070130;28;20666;-51
2022/08/17 09:44:29;;;;;;;29.05;25.70;;;24.40;94.40;;;;;;5076695;28;20044;-50
2022/08/17 09:47:08;;;;;;;29.83;25.83;;;24.30;94.20;;;;;;5070485;28;20490;-50
2022/08/17 09:49:44;;;;;;;28.70;25.33;;;24.40;94.20;;;;;;5070259;28;20322;-50
2022/08/17 09:52:26;;;;;;;33.40;22.33;;;24.40;94.30;;;;;;5074338;28;20126;-50
2022/08/17 09:54:54;;;;;;;26.25;23.02;;;24.30;94.10;;;;;;5073644;28;20043;-50
2022/08/17 09:57:23;;;;;;;27.67;23.35;;;24.30;94.10;;;;;;5072779;28;20449;-50
2022/08/17 10:00:09;;;;;;;24.58;22.27;;;24.30;93.90;;;;;;5079791;28;20330;-50
2022/08/17 10:02:39;;;;;;;24.05;21.52;;;24.40;93.80;;;;;;5071627;28;20044;-53
2022/08/17 10:05:20;;;;;;;22.77;20.67;;;24.40;93.50;;;;;;5074215;28;20048;-51
2022/08/17 10:08:08;;;;;;;21.67;18.70;;;24.40;93.30;;;;;;5069760;28;20070;-50
2022/08/17 10:10:52;;;;;;;20.20;17.73;;;24.50;93.30;;;;;;5078383;28;20043;-50
2022/08/17 10:13:32;;;;;;;20.52;17.88;;;24.50;92.90;;;;;;5078320;28;20032;-50
2022/08/17 10:16:13;;;;;;;20.98;17.63;;;24.50;92.90;;;;;;5069095;28;20134;-50
2022/08/17 10:19:14;;;;;;;17.52;15.85;;;24.50;92.90;;;;;;5071753;28;20044;-53
2022/08/17 10:27:24;;;;;;;15.15;13.75;;;24.50;92.70;;;;;;5069691;28;20166;-50
2022/08/17 10:29:54;;;;;;;15.05;13.65;;;24.60;92.60;;;;;;5066343;28;20068;-50
2022/08/17 10:32:31;;;;;;;13.35;12.20;;;24.60;92.40;;;;;;5070104;28;20044;-51
2022/08/17 10:35:29;;;;;;;15.13;13.52;;;24.60;92.30;;;;;;5069710;28;20115;-50
2022/08/17 10:38:29;;;;;;;15.73;13.93;;;24.70;92.20;;;;;;5050147;28;20567;-53
2022/08/17 10:41:26;;;;;;;14.90;13.48;;;24.70;92.00;;;;;;5050008;28;20037;-49
2022/08/17 10:44:23;;;;;;;14.07;12.65;;;24.80;92.10;;;;;;5043854;28;20061;-51
2022/08/17 10:47:05;;;;;;;13.55;12.23;;;25.00;91.70;;;;;;5067794;28;20480;-50
2022/08/17 10:49:37;;;;;;;14.43;13.18;;;25.10;92.00;;;;;;5063870;28;20347;-50
2022/08/17 10:52:22;;;;;;;16.70;14.98;;;25.20;91.90;;;;;;5069440;28;20410;-50
2022/08/17 10:54:48;;;;;;;18.38;16.33;;;25.30;91.60;;;;;;5062332;28;20052;-49
2022/08/17 10:57:25;;;;;;;15.43;13.93;;;25.50;91.90;;;;;;5069243;28;20171;-50
2022/08/17 10:59:53;;;;;;;13.73;12.60;;;25.50;91.50;;;;;;5064663;28;20490;-50
2022/08/17 11:02:21;;;;;;;16.23;14.48;;;25.50;91.80;;;;;;5054282;28;20064;-51
2022/08/17 11:04:59;;;;;;;15.13;13.75;;;25.50;91.80;;;;;;5053659;28;20040;-50
2022/08/17 11:08:09;;;;;;;17.00;14.80;;;25.60;91.70;;;;;;5053887;28;20041;-50
2022/08/17 11:10:45;;;;;;;17.60;15.95;;;25.60;91.30;;;;;;5054260;28;20044;-50
2022/08/17 11:13:13;;;;;;;;;;;25.60;91.20;;;;;;5069304;28;20356;-52
2022/08/17 11:15:58;;;;;;;16.30;14.48;;;25.50;91.30;;;;;;5065158;28;19969;-50
2022/08/17 11:18:39;;;;;;;18.65;16.85;;;25.50;91.50;;;;;;5078872;28;20316;-50
2022/08/17 11:21:16;;;;;;;20.08;18.23;;;25.50;91.40;;;;;;5078059;28;20043;-51
2022/08/17 11:23:56;;;;;;;21.42;16.63;;;25.40;91.30;;;;;;5074195;28;20047;-51
2022/08/17 11:26:24;;;;;;;19.60;17.55;;;25.30;91.10;;;;;;5073058;28;20124;-50
2022/08/17 11:28:55;;;;;;;19.83;17.42;;;25.30;91.30;;;;;;5073090;28;20037;-52
2022/08/17 11:31:37;;;;;;;14.63;13.23;;;25.30;91.30;;;;;;5072861;28;20043;-50
2022/08/17 11:34:20;;;;;;;16.13;14.45;;;25.20;91.30;;;;;;5072284;28;20036;-52
2022/08/17 11:36:48;;;;;;;18.67;16.15;;;25.20;91.40;;;;;;5053027;28;20403;-52
2022/08/17 11:39:54;;;;;;;20.10;18.20;;;25.20;91.60;;;;;;5053186;28;20124;-51
2022/08/17 11:42:35;;;;;;;19.65;17.55;;;25.20;91.60;;;;;;5061786;28;20505;-52
2022/08/17 11:45:42;;;;;;;22.88;20.55;;;25.20;91.50;;;;;;5072955;28;20037;-50
2022/08/17 11:51:32;;;;;;;23.93;21.40;;;25.20;91.50;;;;;;5050749;28;20466;-51
2022/08/17 11:54:08;;;;;;;31.10;23.80;;;25.10;91.50;;;;;;5072375;28;20275;-52
2022/08/17 11:56:43;;;;;;;26.73;24.05;;;25.10;91.60;;;;;;5067547;28;20098;-50
2022/08/17 11:59:34;;;;;;;27.73;22.83;;;25.10;91.70;;;;;;5086159;28;20060;-52
2022/08/17 12:02:03;;;;;;;33.30;25.15;;;25.10;91.60;;;;;;5069554;28;20048;-51
2022/08/17 12:04:34;;;;;;;30.95;26.85;;;25.00;91.80;;;;;;5071708;28;20044;-54
2022/08/17 12:07:09;;;;;;;26.33;23.60;;;25.00;91.90;;;;;;5072515;28;20066;-53
2022/08/17 12:09:39;;;;;;;32.40;27.20;;;25.00;92.00;;;;;;5074601;28;20047;-55
2022/08/17 12:12:19;;;;;;;38.72;28.10;;;25.00;92.00;;;;;;5070408;28;20028;-55
2022/08/17 12:14:56;;;;;;;38.67;27.02;;;25.00;92.20;;;;;;5071608;28;20051;-52
2022/08/17 12:17:25;;;;;;;33.85;28.92;;;25.00;92.30;;;;;;5067499;28;20089;-57
2022/08/17 12:19:51;;;;;;;35.65;30.52;;;25.10;92.30;;;;;;5061477;28;20436;-56
2022/08/17 12:22:24;;;;;;;35.17;28.52;;;25.00;92.30;;;;;;5072386;28;20041;-57
2022/08/17 12:25:09;;;;;;;32.75;28.60;;;25.10;92.40;;;;;;5072053;28;20120;-55
2022/08/17 12:27:35;;;;;;;40.38;32.72;;;25.10;92.70;;;;;;5068963;28;20136;-55
2022/08/17 12:30:08;;;;;;;38.45;32.17;;;25.10;92.50;;;;;;5063169;28;20037;-54
2022/08/17 12:32:35;;;;;;;38.10;32.03;;;25.10;92.60;;;;;;5070937;28;20067;-52
2022/08/17 12:35:03;;;;;;;38.65;34.15;;;25.10;92.60;;;;;;5071471;28;20037;-51
2022/08/17 12:37:32;;;;;;;40.05;32.08;;;25.10;92.80;;;;;;5067224;28;20421;-54
2022/08/17 12:40:03;;;;;;;43.42;33.97;;;25.00;92.70;;;;;;5071805;28;20478;-55
2022/08/17 12:42:38;;;;;;;37.92;33.85;;;25.00;92.80;;;;;;5071266;28;20049;-52
2022/08/17 12:45:20;;;;;;;38.97;33.58;;;25.00;92.90;;;;;;5065176;28;20041;-51
2022/08/17 12:47:46;;;;;;;46.08;34.08;;;25.00;93.00;;;;;;5070111;28;20038;-51
2022/08/17 12:50:14;;;;;;;38.50;34.17;;;25.00;92.90;;;;;;5070520;28;20086;-51
2022/08/17 12:52:41;;;;;;;44.58;35.35;;;25.00;93.00;;;;;;5071501;28;20089;-50
2022/08/17 12:55:19;;;;;;;38.20;33.97;;;25.00;93.00;;;;;;5071407;28;20086;-50
2022/08/17 12:57:48;;;;;;;46.60;37.15;;;25.00;93.20;;;;;;5055149;28;20036;-50
2022/08/17 13:00:31;;;;;;;50.88;37.97;;;25.00;93.20;;;;;;5071584;28;20044;-51
2022/08/17 13:03:04;;;;;;;56.58;36.78;;;25.00;93.20;;;;;;5071263;28;20119;-51
2022/08/17 13:05:35;;;;;;;44.70;37.22;;;25.00;93.20;;;;;;5071608;28;20040;-51
2022/08/17 13:08:22;;;;;;;44.17;36.53;;;25.00;93.30;;;;;;5069635;28;20401;-50
2022/08/17 13:11:00;;;;;;;40.38;35.90;;;25.00;93.40;;;;;;5060882;28;20049;-51
2022/08/17 13:13:32;;;;;;;44.00;36.50;;;25.00;93.40;;;;;;5071595;28;20102;-50
2022/08/17 13:16:13;;;;;;;45.97;38.13;;;25.00;93.40;;;;;;5071407;28;20410;-51
2022/08/17 13:18:45;;;;;;;47.58;39.05;;;25.00;93.40;;;;;;5070995;28;20052;-52
2022/08/17 13:21:22;;;;;;;49.03;40.88;;;25.00;93.60;;;;;;5070984;28;20115;-49
2022/08/17 13:24:00;;;;;;;46.88;39.00;;;24.90;93.60;;;;;;5069859;28;20401;-50
2022/08/17 13:26:36;;;;;;;46.90;38.33;;;24.90;93.70;;;;;;5071157;28;20367;-50
2022/08/17 13:29:04;;;;;;;;;;;24.90;93.70;;;;;;5071268;28;20064;-49
2022/08/17 13:31:37;;;;;;;49.13;42.72;;;24.90;94.00;;;;;;5071664;28;19916;-49
2022/08/17 13:34:34;;;;;;;53.30;43.50;;;24.80;94.10;;;;;;5068869;28;20037;-49